createdAt,value
2023-01-30T00:01:45.085Z,92.24
2023-01-30T00:04:17.045Z,92.24
2023-01-30T00:06:46.209Z,92.21
2023-01-30T00:09:15.607Z,92.14
2023-01-30T00:11:44.645Z,92.11
2023-01-30T00:14:13.556Z,92.02
2023-01-30T00:16:42.398Z,91.98
2023-01-30T00:19:11.623Z,91.92
2023-01-30T00:21:40.455Z,91.76
2023-01-30T00:24:09.620Z,91.72
2023-01-30T00:26:38.514Z,91.69
2023-01-30T00:29:07.963Z,91.68
2023-01-30T00:31:37.460Z,91.63
2023-01-30T00:34:06.292Z,91.59
2023-01-30T00:36:37.183Z,91.59
2023-01-30T00:39:06.381Z,91.61
2023-01-30T00:41:50.202Z,91.69
2023-01-30T00:44:37.667Z,91.79
2023-01-30T00:47:08.344Z,91.86
2023-01-30T00:49:38.173Z,91.88
2023-01-30T00:52:07.328Z,91.92
2023-01-30T00:54:40.843Z,91.99
2023-01-30T00:57:09.805Z,91.97
2023-01-30T00:59:38.715Z,92.00
2023-01-30T01:02:07.565Z,91.98
2023-01-30T01:04:42.742Z,91.99
2023-01-30T01:07:15.913Z,91.93
2023-01-30T01:09:45.292Z,91.91
2023-01-30T01:12:14.375Z,91.83
2023-01-30T01:14:47.171Z,91.79
2023-01-30T01:17:16.095Z,91.71
2023-01-30T01:19:45.104Z,91.66
2023-01-30T01:22:13.993Z,91.64
2023-01-30T01:24:42.939Z,91.54
2023-01-30T01:27:11.954Z,91.45
2023-01-30T01:29:42.596Z,91.35
2023-01-30T01:32:12.083Z,91.27
2023-01-30T01:34:42.112Z,91.18
2023-01-30T01:37:11.324Z,91.18
2023-01-30T01:39:58.539Z,91.13
2023-01-30T01:42:34.168Z,91.10
2023-01-30T01:45:15.545Z,91.03
2023-01-30T01:47:49.839Z,90.95
2023-01-30T01:50:22.678Z,90.86
2023-01-30T01:52:54.448Z,90.79
2023-01-30T01:55:29.011Z,90.65
2023-01-30T01:58:03.734Z,90.54
2023-01-30T02:00:33.398Z,90.54
2023-01-30T02:03:07.942Z,90.40
2023-01-30T02:05:42.811Z,90.40
2023-01-30T02:08:18.008Z,90.27
2023-01-30T02:10:54.679Z,90.29
2023-01-30T02:13:26.118Z,90.32
2023-01-30T02:15:59.969Z,90.28
2023-01-30T02:18:31.111Z,90.17
2023-01-30T02:21:43.488Z,90.14
2023-01-30T02:24:39.909Z,89.99
2023-01-30T02:27:26.888Z,89.85
2023-01-30T02:30:23.477Z,89.24
2023-01-30T02:33:06.969Z,89.05
2023-01-30T02:35:47.373Z,88.91
2023-01-30T02:38:31.469Z,88.82
2023-01-30T02:41:11.583Z,88.57
2023-01-30T02:43:52.371Z,88.64
2023-01-30T02:46:26.320Z,88.37
2023-01-30T02:49:02.122Z,88.33
2023-01-30T02:51:35.004Z,88.25
2023-01-30T02:54:07.980Z,88.26
2023-01-30T02:56:49.610Z,88.24
2023-01-30T02:59:27.721Z,88.32
2023-01-30T03:02:32.738Z,88.29
2023-01-30T03:05:18.314Z,88.35
2023-01-30T03:07:59.772Z,88.21
2023-01-30T03:10:37.252Z,88.30
2023-01-30T03:13:17.126Z,88.40
2023-01-30T03:15:52.291Z,88.46
2023-01-30T03:18:22.596Z,88.55
2023-01-30T03:20:52.543Z,88.75
2023-01-30T03:23:22.408Z,88.91
2023-01-30T03:25:51.933Z,89.08
2023-01-30T03:28:21.991Z,89.34
2023-01-30T03:30:51.951Z,89.56
2023-01-30T03:33:21.212Z,89.78
2023-01-30T03:35:52.612Z,90.15
2023-01-30T03:38:21.909Z,90.34
2023-01-30T03:40:52.782Z,90.63
2023-01-30T03:43:22.039Z,90.67
2023-01-30T03:45:51.052Z,90.88
2023-01-30T03:48:20.091Z,91.03
2023-01-30T03:50:49.935Z,91.15
2023-01-30T03:53:19.240Z,90.93
2023-01-30T03:55:48.275Z,91.09
2023-01-30T03:58:19.114Z,91.36
2023-01-30T04:00:49.496Z,91.27
2023-01-30T04:03:19.075Z,91.18
2023-01-30T04:05:48.086Z,91.11
2023-01-30T04:08:17.516Z,91.05
2023-01-30T04:10:46.468Z,91.07
2023-01-30T04:13:15.922Z,90.98
2023-01-30T04:15:44.991Z,90.94
2023-01-30T04:18:33.496Z,90.93
2023-01-30T04:21:11.078Z,90.90
2023-01-30T04:23:42.484Z,90.81
2023-01-30T04:26:13.639Z,90.41
2023-01-30T04:28:44.572Z,90.09
2023-01-30T04:31:19.652Z,90.00
2023-01-30T04:34:21.346Z,89.67
2023-01-30T04:36:51.888Z,89.22
2023-01-30T04:39:22.201Z,89.25
2023-01-30T04:41:52.120Z,89.00
2023-01-30T04:44:21.634Z,88.69
2023-01-30T04:47:18.638Z,88.70
2023-01-30T04:49:47.939Z,88.45
2023-01-30T04:52:17.925Z,88.24
2023-01-30T04:54:46.933Z,87.90
2023-01-30T04:57:17.407Z,88.00
2023-01-30T04:59:46.507Z,87.90
2023-01-30T05:02:16.911Z,87.85
2023-01-30T05:04:48.751Z,87.73
2023-01-30T05:07:19.657Z,87.61
2023-01-30T05:09:51.589Z,87.26
2023-01-30T05:12:20.720Z,86.84
2023-01-30T05:14:49.618Z,86.71
2023-01-30T05:17:18.606Z,86.67
2023-01-30T05:19:47.843Z,86.67
2023-01-30T05:22:16.905Z,86.78
2023-01-30T05:24:46.029Z,86.52
2023-01-30T05:27:14.985Z,86.79
2023-01-30T05:29:45.153Z,86.80
2023-01-30T05:32:15.443Z,86.82
2023-01-30T05:34:44.828Z,86.86
2023-01-30T05:37:14.761Z,86.89
2023-01-30T05:39:43.636Z,86.98
2023-01-30T05:42:12.492Z,87.06
2023-01-30T05:44:41.550Z,86.87
2023-01-30T05:47:10.540Z,87.02
2023-01-30T05:49:39.724Z,87.08
2023-01-30T05:52:09.133Z,86.97
2023-01-30T05:54:38.398Z,86.91
2023-01-30T05:57:07.408Z,86.73
2023-01-30T05:59:36.581Z,86.86
2023-01-30T06:02:06.131Z,86.67
2023-01-30T06:04:35.638Z,86.74
2023-01-30T06:07:07.404Z,86.79
2023-01-30T06:09:36.590Z,86.64
2023-01-30T06:12:08.110Z,86.45
2023-01-30T06:14:37.285Z,86.43
2023-01-30T06:17:06.522Z,86.23
2023-01-30T06:19:35.936Z,86.33
2023-01-30T06:22:06.007Z,86.15
2023-01-30T06:24:35.009Z,86.08
2023-01-30T06:27:04.584Z,85.76
2023-01-30T06:29:34.195Z,85.81
2023-01-30T06:32:03.376Z,85.62
2023-01-30T06:34:33.821Z,85.33
2023-01-30T06:37:03.007Z,85.01
2023-01-30T06:39:32.875Z,85.15
2023-01-30T06:42:02.218Z,85.15
2023-01-30T06:44:32.028Z,85.04
2023-01-30T06:47:01.052Z,85.10
2023-01-30T06:49:29.936Z,84.88
2023-01-30T06:51:59.923Z,84.93
2023-01-30T06:54:29.070Z,84.67
2023-01-30T06:56:58.285Z,84.53
2023-01-30T06:59:29.207Z,84.57
2023-01-30T07:01:58.860Z,85.03
2023-01-30T07:04:28.243Z,84.70
2023-01-30T07:06:57.615Z,84.29
2023-01-30T07:09:28.718Z,84.30
2023-01-30T07:11:59.110Z,84.37
2023-01-30T07:14:28.554Z,84.06
2023-01-30T07:16:57.633Z,83.68
2023-01-30T07:19:29.191Z,83.53
2023-01-30T07:21:58.497Z,83.59
2023-01-30T07:24:28.568Z,83.61
2023-01-30T07:26:57.556Z,84.06
2023-01-30T07:29:28.974Z,83.69
2023-01-30T07:31:58.493Z,83.72
2023-01-30T07:34:28.857Z,83.72
2023-01-30T07:36:57.986Z,83.92
2023-01-30T07:39:28.746Z,83.90
2023-01-30T07:41:59.941Z,84.17
2023-01-30T07:44:29.211Z,84.39
2023-01-30T07:46:58.369Z,84.81
2023-01-30T07:49:28.791Z,85.08
2023-01-30T07:51:57.800Z,85.55
2023-01-30T07:54:29.248Z,85.91
2023-01-30T07:56:59.756Z,86.09
2023-01-30T07:59:28.734Z,86.54
2023-01-30T08:01:58.263Z,86.68
2023-01-30T08:04:39.452Z,86.80
2023-01-30T08:07:08.389Z,87.03
2023-01-30T08:09:38.807Z,87.34
2023-01-30T08:12:07.806Z,87.85
2023-01-30T08:14:37.876Z,88.15
2023-01-30T08:17:12.610Z,88.31
2023-01-30T08:19:41.804Z,88.46
2023-01-30T08:22:13.318Z,88.49
2023-01-30T08:24:43.224Z,88.77
2023-01-30T08:27:12.215Z,88.97
2023-01-30T08:29:41.413Z,88.97
2023-01-30T08:32:10.905Z,89.00
2023-01-30T08:34:40.203Z,89.20
2023-01-30T08:37:09.136Z,89.33
2023-01-30T08:39:38.273Z,89.42
2023-01-30T08:42:07.257Z,89.36
2023-01-30T08:44:36.262Z,89.42
2023-01-30T08:47:05.838Z,89.32
2023-01-30T08:49:35.404Z,89.48
2023-01-30T08:52:05.033Z,89.38
2023-01-30T08:54:34.225Z,89.48
2023-01-30T08:57:03.472Z,89.55
2023-01-30T08:59:34.031Z,89.47
2023-01-30T09:02:03.913Z,89.65
2023-01-30T09:04:33.315Z,89.72
2023-01-30T09:07:02.835Z,89.81
2023-01-30T09:09:32.467Z,89.83
2023-01-30T09:12:01.536Z,89.96
2023-01-30T09:14:34.245Z,90.11
2023-01-30T09:17:03.441Z,90.08
2023-01-30T09:19:37.111Z,89.80
2023-01-30T09:22:07.432Z,90.09
2023-01-30T09:24:37.272Z,90.10
2023-01-30T09:27:06.405Z,90.08
2023-01-30T09:29:35.888Z,90.19
2023-01-30T09:32:05.921Z,90.28
2023-01-30T09:34:35.277Z,90.12
2023-01-30T09:37:07.735Z,90.03
2023-01-30T09:39:37.362Z,89.97
2023-01-30T09:42:43.257Z,90.01
2023-01-30T09:45:36.775Z,89.97
2023-01-30T09:48:18.112Z,89.92
2023-01-30T09:51:09.723Z,89.93
2023-01-30T09:54:01.061Z,89.86
2023-01-30T09:56:35.738Z,89.92
2023-01-30T09:59:07.254Z,90.02
2023-01-30T10:01:48.828Z,90.08
2023-01-30T10:04:27.831Z,90.23
2023-01-30T10:07:05.198Z,90.24
2023-01-30T10:09:43.516Z,90.32
2023-01-30T10:12:28.257Z,90.27
2023-01-30T10:15:14.917Z,90.33
2023-01-30T10:17:55.272Z,90.32
2023-01-30T10:20:35.914Z,90.42
2023-01-30T10:23:40.768Z,90.44
2023-01-30T10:26:13.573Z,90.70
2023-01-30T10:29:06.072Z,90.96
2023-01-30T10:31:44.461Z,91.04
2023-01-30T10:34:19.629Z,91.10
2023-01-30T10:36:55.898Z,91.28
2023-01-30T10:39:49.611Z,91.46
2023-01-30T10:42:32.273Z,91.60
2023-01-30T10:45:11.608Z,91.74
2023-01-30T10:47:56.254Z,91.82
2023-01-30T10:50:29.316Z,92.02
2023-01-30T10:53:10.048Z,92.06
2023-01-30T10:55:45.753Z,92.10
2023-01-30T10:58:25.946Z,92.12
2023-01-30T11:01:00.229Z,92.14
2023-01-30T11:03:35.805Z,92.32
2023-01-30T11:06:10.981Z,92.30
2023-01-30T11:08:40.234Z,92.48
2023-01-30T11:11:29.550Z,92.53
2023-01-30T11:14:07.104Z,92.50
2023-01-30T11:16:44.713Z,92.48
2023-01-30T11:19:20.370Z,92.58
2023-01-30T11:21:53.975Z,92.54
2023-01-30T11:24:29.901Z,92.48
2023-01-30T11:27:12.715Z,92.56
2023-01-30T11:29:42.479Z,92.50
2023-01-30T11:32:22.243Z,92.42
2023-01-30T11:35:11.865Z,92.36
2023-01-30T11:37:43.682Z,92.31
2023-01-30T11:40:27.543Z,92.21
2023-01-30T11:43:04.990Z,92.10
2023-01-30T11:45:40.941Z,91.85
2023-01-30T11:48:33.846Z,91.64
2023-01-30T11:51:09.833Z,91.52
2023-01-30T11:53:44.957Z,91.41
2023-01-30T11:56:23.101Z,91.33
2023-01-30T11:58:58.386Z,91.24
2023-01-30T12:01:35.472Z,91.13
2023-01-30T12:04:11.857Z,91.27
2023-01-30T12:06:42.934Z,91.29
2023-01-30T12:09:33.285Z,91.38
2023-01-30T12:12:02.835Z,91.46
2023-01-30T12:14:44.319Z,91.51
2023-01-30T12:17:22.500Z,91.58
2023-01-30T12:20:03.171Z,91.59
2023-01-30T12:22:38.176Z,91.66
2023-01-30T12:25:17.855Z,91.68
2023-01-30T12:27:56.138Z,91.78
2023-01-30T12:30:34.513Z,91.82
2023-01-30T12:33:06.252Z,91.78
2023-01-30T12:35:50.282Z,91.62
2023-01-30T12:38:33.779Z,91.61
2023-01-30T12:41:19.059Z,91.70
2023-01-30T12:44:07.153Z,91.71
2023-01-30T12:46:55.051Z,91.67
2023-01-30T12:49:43.979Z,91.85
2023-01-30T12:52:33.648Z,91.81
2023-01-30T12:55:16.402Z,91.88
2023-01-30T12:57:52.034Z,91.88
2023-01-30T13:00:29.029Z,91.99
2023-01-30T13:03:14.842Z,91.94
2023-01-30T13:05:53.845Z,92.16
2023-01-30T13:08:39.907Z,92.24
2023-01-30T13:11:22.986Z,92.33
2023-01-30T13:13:57.830Z,92.41
2023-01-30T13:16:36.546Z,92.45
2023-01-30T13:19:13.028Z,92.57
2023-01-30T13:21:47.009Z,92.34
2023-01-30T13:24:22.367Z,92.31
2023-01-30T13:26:57.890Z,92.50
2023-01-30T13:29:37.918Z,92.67
2023-01-30T13:32:14.928Z,92.73
2023-01-30T13:34:48.313Z,92.56
2023-01-30T13:37:19.362Z,92.80
2023-01-30T13:39:52.510Z,92.83
2023-01-30T13:42:33.642Z,92.78
2023-01-30T13:45:06.636Z,92.87
2023-01-30T13:47:50.917Z,92.93
2023-01-30T13:50:34.316Z,92.40
2023-01-30T13:53:08.541Z,92.63
2023-01-30T13:55:47.617Z,92.90
2023-01-30T13:58:34.083Z,92.89
2023-01-30T14:01:04.719Z,92.86
2023-01-30T14:03:34.893Z,92.80
2023-01-30T14:06:32.881Z,92.83
2023-01-30T14:09:17.604Z,92.68
2023-01-30T14:11:48.911Z,92.92
2023-01-30T14:14:37.746Z,92.98
2023-01-30T14:17:15.417Z,93.04
2023-01-30T14:19:53.988Z,92.99
2023-01-30T14:22:42.058Z,92.98
2023-01-30T14:25:43.365Z,92.95
2023-01-30T14:28:51.391Z,92.94
2023-01-30T14:31:54.539Z,92.87
2023-01-30T14:34:44.548Z,92.93
2023-01-30T14:37:50.855Z,92.90
2023-01-30T14:40:36.765Z,92.85
2023-01-30T14:43:39.878Z,92.84
2023-01-30T14:46:54.470Z,92.91
2023-01-30T14:49:35.402Z,92.85
2023-01-30T14:52:23.741Z,92.89
2023-01-30T14:54:59.636Z,92.90
2023-01-30T14:57:34.253Z,93.00
2023-01-30T15:00:19.286Z,93.07
2023-01-30T15:02:55.824Z,93.12
2023-01-30T15:05:36.421Z,93.20
2023-01-30T15:08:16.322Z,93.21
2023-01-30T15:11:10.597Z,93.22
2023-01-30T15:14:02.549Z,93.21
2023-01-30T15:17:09.347Z,93.16
2023-01-30T15:19:57.923Z,93.20
2023-01-30T15:22:48.405Z,93.19
2023-01-30T15:25:34.472Z,93.24
2023-01-30T15:28:35.535Z,93.24
2023-01-30T15:31:21.006Z,93.21
2023-01-30T15:33:55.139Z,93.18
2023-01-30T15:36:35.634Z,93.21
2023-01-30T15:39:19.364Z,93.16
2023-01-30T15:41:49.447Z,93.12
2023-01-30T15:44:47.941Z,93.08
2023-01-30T15:47:40.094Z,93.10
2023-01-30T15:50:11.553Z,93.00
2023-01-30T15:52:44.619Z,93.00
2023-01-30T15:55:20.354Z,93.02
2023-01-30T15:57:53.447Z,92.99
2023-01-30T16:00:30.492Z,93.03
2023-01-30T16:03:02.046Z,93.00
2023-01-30T16:05:31.985Z,92.94
2023-01-30T16:08:19.828Z,92.90
2023-01-30T16:10:50.215Z,92.82
2023-01-30T16:13:23.900Z,92.78
2023-01-30T16:16:02.142Z,92.74
2023-01-30T16:18:52.143Z,92.66
2023-01-30T16:21:33.745Z,92.59
2023-01-30T16:24:17.002Z,92.51
2023-01-30T16:26:51.690Z,92.43
2023-01-30T16:29:28.481Z,92.41
2023-01-30T16:32:00.104Z,92.33
2023-01-30T16:34:32.979Z,92.24
2023-01-30T16:37:07.535Z,92.18
2023-01-30T16:39:38.260Z,92.18
2023-01-30T16:42:29.231Z,92.12
2023-01-30T16:45:42.705Z,92.06
2023-01-30T16:48:30.882Z,91.96
2023-01-30T16:51:16.368Z,91.90
2023-01-30T16:54:02.700Z,91.83
2023-01-30T16:56:36.153Z,91.78
2023-01-30T16:59:07.259Z,91.74
2023-01-30T17:01:40.434Z,91.70
2023-01-30T17:04:21.595Z,91.58
2023-01-30T17:06:55.518Z,91.56
2023-01-30T17:09:44.312Z,91.52
2023-01-30T17:12:42.832Z,91.46
2023-01-30T17:15:31.308Z,91.47
2023-01-30T17:18:06.225Z,91.44
2023-01-30T17:20:54.941Z,91.40
2023-01-30T17:23:36.370Z,91.33
2023-01-30T17:26:26.693Z,91.31
2023-01-30T17:28:59.894Z,91.31
2023-01-30T17:31:43.789Z,91.23
2023-01-30T17:34:17.413Z,91.18
2023-01-30T17:36:52.327Z,91.23
2023-01-30T17:39:29.775Z,91.20
2023-01-30T17:42:10.569Z,91.20
2023-01-30T17:44:45.106Z,91.21
2023-01-30T17:47:26.776Z,91.14
2023-01-30T17:50:02.771Z,91.16
2023-01-30T17:52:36.182Z,91.15
2023-01-30T17:55:13.710Z,91.10
2023-01-30T17:57:50.679Z,91.04
2023-01-30T18:00:29.137Z,91.05
2023-01-30T18:03:07.321Z,91.04
2023-01-30T18:05:44.757Z,90.95
2023-01-30T18:08:18.424Z,90.89
2023-01-30T18:10:54.517Z,90.82
2023-01-30T18:13:31.162Z,90.74
2023-01-30T18:16:26.402Z,90.75
2023-01-30T18:18:56.792Z,90.68
2023-01-30T18:21:28.228Z,90.55
2023-01-30T18:23:57.070Z,90.59
2023-01-30T18:26:27.210Z,90.49
2023-01-30T18:28:56.586Z,90.52
2023-01-30T18:31:28.590Z,90.55
2023-01-30T18:33:58.511Z,90.51
2023-01-30T18:36:29.345Z,90.55
2023-01-30T18:38:58.292Z,90.57
2023-01-30T18:41:28.599Z,90.63
2023-01-30T18:44:00.395Z,90.70
2023-01-30T18:46:32.206Z,90.69
2023-01-30T18:49:01.758Z,90.83
2023-01-30T18:51:33.970Z,90.85
2023-01-30T18:54:03.457Z,90.89
2023-01-30T18:56:35.348Z,90.95
2023-01-30T18:59:06.013Z,90.98
2023-01-30T19:01:42.029Z,90.96
2023-01-30T19:04:12.167Z,90.98
2023-01-30T19:06:45.357Z,91.00
2023-01-30T19:09:21.257Z,91.12
2023-01-30T19:12:13.961Z,91.05
2023-01-30T19:14:47.934Z,91.09
2023-01-30T19:17:24.143Z,91.11
2023-01-30T19:20:18.216Z,91.23
2023-01-30T19:23:02.809Z,91.26
2023-01-30T19:25:40.182Z,91.24
2023-01-30T19:28:14.772Z,91.46
2023-01-30T19:30:51.576Z,91.66
2023-01-30T19:33:31.789Z,91.65
2023-01-30T19:36:15.722Z,91.79
2023-01-30T19:38:52.498Z,91.88
2023-01-30T19:41:30.799Z,91.99
2023-01-30T19:44:09.086Z,92.15
2023-01-30T19:46:41.917Z,92.23
2023-01-30T19:49:17.771Z,92.22
2023-01-30T19:51:52.585Z,92.23
2023-01-30T19:54:31.440Z,92.20
2023-01-30T19:57:20.517Z,92.25
2023-01-30T19:59:53.235Z,92.29
2023-01-30T20:02:31.214Z,92.09
2023-01-30T20:05:07.343Z,92.27
2023-01-30T20:07:45.459Z,92.22
2023-01-30T20:10:22.554Z,92.36
2023-01-30T20:13:04.069Z,92.33
2023-01-30T20:15:48.653Z,92.41
2023-01-30T20:18:29.808Z,92.53
2023-01-30T20:21:12.672Z,92.79
2023-01-30T20:23:46.850Z,92.76
2023-01-30T20:26:20.538Z,92.67
2023-01-30T20:28:54.223Z,92.56
2023-01-30T20:31:30.629Z,92.56
2023-01-30T20:34:09.290Z,92.62
2023-01-30T20:36:39.128Z,92.63
2023-01-30T20:39:09.255Z,92.50
2023-01-30T20:41:38.938Z,92.45
2023-01-30T20:44:11.359Z,92.51
2023-01-30T20:46:42.399Z,92.38
2023-01-30T20:49:14.514Z,92.41
2023-01-30T20:51:44.810Z,92.05
2023-01-30T20:54:14.792Z,92.18
2023-01-30T20:56:46.021Z,92.33
2023-01-30T20:59:17.368Z,92.40
2023-01-30T21:01:46.473Z,92.29
2023-01-30T21:04:17.225Z,92.28
2023-01-30T21:06:47.174Z,92.07
2023-01-30T21:09:18.426Z,91.97
2023-01-30T21:11:48.104Z,91.89
2023-01-30T21:14:17.474Z,91.88
2023-01-30T21:16:47.084Z,91.90
2023-01-30T21:19:17.510Z,92.02
2023-01-30T21:21:50.202Z,91.90
2023-01-30T21:24:21.971Z,91.98
2023-01-30T21:26:51.388Z,91.91
2023-01-30T21:29:23.543Z,91.90
2023-01-30T21:31:52.992Z,91.82
2023-01-30T21:34:22.660Z,91.90
2023-01-30T21:37:06.136Z,92.01
2023-01-30T21:39:54.384Z,92.01
2023-01-30T21:42:41.650Z,92.03
2023-01-30T21:45:11.111Z,92.18
2023-01-30T21:47:42.228Z,92.41
2023-01-30T21:50:13.236Z,92.24
2023-01-30T21:52:42.327Z,92.20
2023-01-30T21:55:11.700Z,92.18
2023-01-30T21:57:41.702Z,92.21
2023-01-30T22:00:15.904Z,92.27
2023-01-30T22:02:43.981Z,92.30
2023-01-30T22:05:12.928Z,92.20
2023-01-30T22:07:42.109Z,92.31
2023-01-30T22:10:12.416Z,92.41
2023-01-30T22:12:42.280Z,92.46
2023-01-30T22:15:12.722Z,92.56
2023-01-30T22:17:42.126Z,92.49
2023-01-30T22:20:13.452Z,92.62
2023-01-30T22:22:42.648Z,92.74
2023-01-30T22:25:12.616Z,92.68
2023-01-30T22:27:42.008Z,92.62
2023-01-30T22:30:14.542Z,92.47
2023-01-30T22:32:43.543Z,92.55
2023-01-30T22:35:12.600Z,92.58
2023-01-30T22:37:41.879Z,92.60
2023-01-30T22:40:12.880Z,92.53
2023-01-30T22:42:48.760Z,92.55
2023-01-30T22:45:17.252Z,92.45
2023-01-30T22:47:46.227Z,92.34
2023-01-30T22:50:16.852Z,92.41
2023-01-30T22:52:48.812Z,92.31
2023-01-30T22:55:18.471Z,92.18
2023-01-30T22:57:48.446Z,92.30
2023-01-30T23:00:19.778Z,92.26
2023-01-30T23:02:49.135Z,92.25
2023-01-30T23:05:19.063Z,92.30
2023-01-30T23:07:49.026Z,92.23
2023-01-30T23:10:18.529Z,92.27
2023-01-30T23:13:05.890Z,92.11
2023-01-30T23:15:39.065Z,92.05
2023-01-30T23:18:28.614Z,92.13
2023-01-30T23:20:57.693Z,92.11
2023-01-30T23:23:28.633Z,92.12
2023-01-30T23:26:01.041Z,92.17
2023-01-30T23:28:31.158Z,92.09
2023-01-30T23:31:06.966Z,92.16
2023-01-30T23:33:36.555Z,92.18
2023-01-30T23:36:08.280Z,92.21
2023-01-30T23:38:38.872Z,92.08
2023-01-30T23:41:11.905Z,92.07
2023-01-30T23:43:42.732Z,92.00
2023-01-30T23:46:17.269Z,91.98
2023-01-30T23:48:48.363Z,91.96
2023-01-30T23:51:20.476Z,91.98
2023-01-30T23:53:50.320Z,91.95
2023-01-30T23:56:22.147Z,91.96
2023-01-30T23:58:51.354Z,91.94
